createdAt,value
2022-12-27T00:00:08.546Z,100207.78
2022-12-27T00:02:38.522Z,100198.53
2022-12-27T00:05:09.082Z,100194.97
2022-12-27T00:07:37.266Z,100188.59
2022-12-27T00:10:06.747Z,100199.09
2022-12-27T00:12:34.311Z,100213.63
2022-12-27T00:15:01.560Z,100219.53
2022-12-27T00:17:29.221Z,100225.44
2022-12-27T00:19:56.308Z,100216.53
2022-12-27T00:22:23.488Z,100212.53
2022-12-27T00:24:51.034Z,100214.72
2022-12-27T00:27:18.102Z,100245.59
2022-12-27T00:29:45.154Z,100252.38
2022-12-27T00:32:12.267Z,100290.81
2022-12-27T00:34:39.278Z,100305.38
2022-12-27T00:37:06.303Z,100285.44
2022-12-27T00:39:34.502Z,100294.28
2022-12-27T00:42:01.611Z,100298.66
2022-12-27T00:44:28.763Z,100311.06
2022-12-27T00:46:55.804Z,100311.84
2022-12-27T00:49:23.076Z,100322.78
2022-12-27T00:51:50.681Z,100302.28
2022-12-27T00:54:18.163Z,100292.50
2022-12-27T00:56:45.195Z,100310.84
2022-12-27T00:59:12.934Z,100325.25
2022-12-27T01:01:40.249Z,100320.53
2022-12-27T01:04:07.992Z,100320.94
2022-12-27T01:06:35.909Z,100325.03
2022-12-27T01:09:04.704Z,100325.22
2022-12-27T01:11:32.983Z,100354.06
2022-12-27T01:14:03.460Z,100362.81
2022-12-27T01:16:32.161Z,100370.44
2022-12-27T01:19:00.042Z,100371.31
2022-12-27T01:21:30.933Z,100382.94
2022-12-27T01:23:59.187Z,100403.31
2022-12-27T01:26:26.297Z,100409.25
2022-12-27T01:28:54.217Z,100412.41
2022-12-27T01:31:26.261Z,100411.59
2022-12-27T01:33:58.870Z,100429.94
2022-12-27T01:36:29.037Z,100436.00
2022-12-27T01:38:56.707Z,100441.78
2022-12-27T01:41:45.154Z,100448.56
2022-12-27T01:44:40.147Z,100450.69
2022-12-27T01:47:19.047Z,100469.06
2022-12-27T01:50:05.845Z,100492.22
2022-12-27T01:53:11.481Z,100497.09
2022-12-27T01:56:03.530Z,100506.59
2022-12-27T01:58:50.155Z,100512.41
2022-12-27T02:01:23.217Z,100519.22
2022-12-27T02:03:57.310Z,100540.63
2022-12-27T02:06:24.845Z,100539.19
2022-12-27T02:09:14.653Z,100540.41
2022-12-27T02:11:51.725Z,100540.09
2022-12-27T02:14:45.407Z,100576.53
2022-12-27T02:17:29.081Z,100581.75
2022-12-27T02:20:17.168Z,100588.13
2022-12-27T02:23:40.232Z,100585.97
2022-12-27T02:26:28.186Z,100604.06
2022-12-27T02:29:30.108Z,100609.53
2022-12-27T02:32:20.703Z,100599.28
2022-12-27T02:35:08.994Z,100609.22
2022-12-27T02:37:49.370Z,100618.66
2022-12-27T02:40:37.647Z,100625.03
2022-12-27T02:43:23.950Z,100620.56
2022-12-27T02:46:35.945Z,100611.59
2022-12-27T02:49:22.457Z,100632.63
2022-12-27T02:52:51.506Z,100635.28
2022-12-27T02:56:07.546Z,100633.38
2022-12-27T02:58:56.651Z,100649.81
2022-12-27T03:02:12.932Z,100642.31
2022-12-27T03:05:17.237Z,100646.56
2022-12-27T03:08:04.923Z,100641.84
2022-12-27T03:10:57.058Z,100646.13
2022-12-27T03:14:01.628Z,100660.41
2022-12-27T03:16:56.095Z,100660.47
2022-12-27T03:20:09.187Z,100668.50
2022-12-27T03:22:58.559Z,100664.88
2022-12-27T03:25:29.252Z,100674.25
2022-12-27T03:28:54.040Z,100688.78
2022-12-27T03:31:54.671Z,100703.81
2022-12-27T03:34:32.745Z,100687.94
2022-12-27T03:37:32.124Z,100691.69
2022-12-27T03:40:25.154Z,100663.97
2022-12-27T03:43:10.881Z,100655.44
2022-12-27T03:46:34.656Z,100659.19
2022-12-27T03:49:27.883Z,100679.72
2022-12-27T03:52:07.979Z,100681.63
2022-12-27T03:54:39.482Z,100680.75
2022-12-27T03:57:14.708Z,100665.38
2022-12-27T03:59:41.881Z,100655.69
2022-12-27T04:02:10.046Z,100661.16
2022-12-27T04:04:38.054Z,100663.66
2022-12-27T04:07:06.400Z,100670.34
2022-12-27T04:09:52.577Z,100655.69
2022-12-27T04:12:38.333Z,100660.78
2022-12-27T04:15:24.459Z,100660.41
2022-12-27T04:18:10.059Z,100663.47
2022-12-27T04:20:55.668Z,100667.03
2022-12-27T04:23:41.350Z,100663.28
2022-12-27T04:26:26.809Z,100659.38
2022-12-27T04:29:12.490Z,100658.38
2022-12-27T04:31:58.227Z,100683.78
2022-12-27T04:34:43.708Z,100681.56
2022-12-27T04:37:18.174Z,100679.84
2022-12-27T04:40:05.324Z,100671.03
2022-12-27T04:42:50.942Z,100676.91
2022-12-27T04:45:36.391Z,100665.38
2022-12-27T04:48:22.345Z,100677.22
2022-12-27T04:51:07.928Z,100683.47
2022-12-27T04:53:53.493Z,100688.06
2022-12-27T04:56:20.517Z,100699.13
2022-12-27T04:59:05.732Z,100702.78
2022-12-27T05:01:51.545Z,100711.19
2022-12-27T05:04:18.644Z,100721.53
2022-12-27T05:06:45.712Z,100708.41
2022-12-27T05:09:31.430Z,100712.97
2022-12-27T05:12:20.921Z,100720.28
2022-12-27T05:14:48.190Z,100723.03
2022-12-27T05:17:15.185Z,100708.81
2022-12-27T05:19:42.175Z,100708.75
2022-12-27T05:22:27.792Z,100713.97
2022-12-27T05:25:13.337Z,100698.03
2022-12-27T05:27:40.357Z,100716.00
2022-12-27T05:30:08.330Z,100704.22
2022-12-27T05:32:35.351Z,100699.69
2022-12-27T05:35:02.483Z,100706.00
2022-12-27T05:37:29.571Z,100699.09
2022-12-27T05:39:56.546Z,100711.69
2022-12-27T05:42:23.690Z,100715.72
2022-12-27T05:44:50.883Z,100703.94
2022-12-27T05:47:17.906Z,100702.00
2022-12-27T05:49:44.904Z,100704.50
2022-12-27T05:52:11.862Z,100704.72
2022-12-27T05:54:38.971Z,100704.38
2022-12-27T05:57:05.937Z,100699.63
2022-12-27T05:59:32.932Z,100713.06
2022-12-27T06:02:00.234Z,100713.59
2022-12-27T06:04:27.435Z,100707.84
2022-12-27T06:06:54.450Z,100702.69
2022-12-27T06:09:21.615Z,100716.28
2022-12-27T06:11:48.583Z,100717.91
2022-12-27T06:14:15.581Z,100712.56
2022-12-27T06:16:42.788Z,100716.78
2022-12-27T06:19:10.008Z,100719.09
2022-12-27T06:21:37.079Z,100733.03
2022-12-27T06:24:04.493Z,100744.03
2022-12-27T06:26:31.689Z,100751.47
2022-12-27T06:28:59.442Z,100747.59
2022-12-27T06:31:28.827Z,100774.25
2022-12-27T06:33:56.697Z,100770.56
2022-12-27T06:36:30.464Z,100776.94
2022-12-27T06:38:58.830Z,100774.09
2022-12-27T06:41:26.546Z,100773.91
2022-12-27T06:43:58.499Z,100767.78
2022-12-27T06:46:25.850Z,100781.75
2022-12-27T06:48:53.334Z,100782.84
2022-12-27T06:51:22.040Z,100777.94
2022-12-27T06:53:49.300Z,100783.75
2022-12-27T06:56:20.099Z,100805.13
2022-12-27T06:58:49.458Z,100788.56
2022-12-27T07:01:21.007Z,100808.03
2022-12-27T07:03:58.129Z,100811.56
2022-12-27T07:06:28.330Z,100813.94
2022-12-27T07:08:57.574Z,100802.78
2022-12-27T07:11:25.955Z,100785.84
2022-12-27T07:13:55.537Z,100805.78
2022-12-27T07:16:26.821Z,100812.09
2022-12-27T07:18:57.048Z,100820.50
2022-12-27T07:21:27.729Z,100827.16
2022-12-27T07:23:55.247Z,100833.19
2022-12-27T07:26:30.152Z,100825.91
2022-12-27T07:29:00.859Z,100839.72
2022-12-27T07:31:32.242Z,100851.13
2022-12-27T07:34:03.087Z,100868.28
2022-12-27T07:36:37.761Z,100877.84
2022-12-27T07:39:06.495Z,100884.16
2022-12-27T07:41:33.687Z,100893.00
2022-12-27T07:44:00.890Z,100897.22
2022-12-27T07:46:28.278Z,100918.13
2022-12-27T07:48:57.658Z,100917.28
2022-12-27T07:51:26.285Z,100924.16
2022-12-27T07:53:54.087Z,100929.00
2022-12-27T07:56:26.753Z,100935.50
2022-12-27T07:58:56.965Z,100954.56
2022-12-27T08:01:26.753Z,100962.84
2022-12-27T08:03:54.283Z,100977.09
2022-12-27T08:06:24.630Z,100988.88
2022-12-27T08:08:53.184Z,101002.06
2022-12-27T08:11:21.089Z,101012.28
2022-12-27T08:13:48.261Z,101010.69
2022-12-27T08:16:22.579Z,101021.94
2022-12-27T08:18:49.938Z,101030.56
2022-12-27T08:21:17.041Z,101016.75
2022-12-27T08:23:44.251Z,101011.72
2022-12-27T08:26:11.741Z,101023.88
2022-12-27T08:28:47.862Z,101023.66
2022-12-27T08:31:15.068Z,101009.53
2022-12-27T08:33:42.387Z,101018.69
2022-12-27T08:39:00.237Z,101013.84
2022-12-27T08:41:27.363Z,101013.34
2022-12-27T08:43:54.431Z,101014.53
2022-12-27T08:46:21.570Z,101014.09
2022-12-27T08:48:49.834Z,101007.06
2022-12-27T08:51:28.369Z,101009.69
2022-12-27T08:53:58.747Z,100997.66
2022-12-27T08:56:25.913Z,100989.75
2022-12-27T08:58:53.207Z,101000.41
2022-12-27T09:01:21.387Z,101001.50
2022-12-27T09:03:49.251Z,101002.66
2022-12-27T09:06:20.824Z,100997.34
2022-12-27T09:08:50.354Z,101009.03
2022-12-27T09:11:26.324Z,101031.59
2022-12-27T09:13:53.744Z,101023.28
2022-12-27T09:16:24.643Z,101031.69
2022-12-27T09:18:56.067Z,101029.13
2022-12-27T09:21:27.012Z,101038.28
2022-12-27T09:24:01.658Z,101036.94
2022-12-27T09:26:30.496Z,101041.34
2022-12-27T09:29:01.928Z,101036.94
2022-12-27T09:31:40.814Z,101045.09
2022-12-27T09:34:16.528Z,101034.84
2022-12-27T09:36:44.695Z,101056.38
2022-12-27T09:39:14.025Z,101045.22
2022-12-27T09:45:17.479Z,101072.41
2022-12-27T09:47:55.715Z,101072.72
2022-12-27T09:50:31.615Z,101054.94
2022-12-27T09:53:17.203Z,101069.13
2022-12-27T09:55:58.059Z,101048.75
2022-12-27T09:58:50.426Z,101063.88
2022-12-27T10:01:31.770Z,101060.31
2022-12-27T10:04:00.345Z,101061.31
2022-12-27T10:06:50.769Z,101061.25
2022-12-27T10:09:51.415Z,101031.84
2022-12-27T10:12:32.055Z,101037.41
2022-12-27T10:15:14.702Z,101051.38
2022-12-27T10:18:30.523Z,101057.97
2022-12-27T10:21:22.415Z,101059.81
2022-12-27T10:24:19.915Z,101030.63
2022-12-27T10:26:46.849Z,101028.19
2022-12-27T10:29:24.873Z,101031.28
2022-12-27T10:31:52.864Z,101017.31
2022-12-27T10:34:27.025Z,101021.28
2022-12-27T10:36:55.182Z,101029.81
2022-12-27T10:39:31.028Z,101006.72
2022-12-27T10:42:08.693Z,100998.41
2022-12-27T10:44:35.726Z,100992.50
2022-12-27T10:47:03.199Z,100999.72
2022-12-27T10:49:33.015Z,101003.53
2022-12-27T10:52:23.116Z,101007.25
2022-12-27T10:54:57.644Z,100964.69
2022-12-27T10:57:34.125Z,101005.72
2022-12-27T11:00:23.105Z,100945.69
2022-12-27T11:02:51.216Z,100948.69
2022-12-27T11:05:27.382Z,100939.88
2022-12-27T11:07:55.522Z,100925.63
2022-12-27T11:10:26.551Z,100933.47
2022-12-27T11:13:07.105Z,100929.28
2022-12-27T11:15:37.365Z,100920.47
2022-12-27T11:18:18.487Z,100926.56
2022-12-27T11:20:53.402Z,100927.66
2022-12-27T11:23:24.177Z,100935.91
2022-12-27T11:26:00.879Z,100902.09
2022-12-27T11:28:50.987Z,100925.38
2022-12-27T11:31:29.893Z,100912.47
2022-12-27T11:34:01.809Z,100893.50
2022-12-27T11:36:40.899Z,100911.66
2022-12-27T11:39:32.669Z,100857.31
2022-12-27T11:42:00.834Z,100853.00
2022-12-27T11:44:34.456Z,100855.44
2022-12-27T11:47:09.191Z,100858.06
2022-12-27T11:50:01.306Z,100879.13
2022-12-27T11:52:51.336Z,100892.91
2022-12-27T11:55:27.645Z,100915.38
2022-12-27T11:58:50.701Z,100895.34
2022-12-27T12:01:36.788Z,100902.59
2022-12-27T12:04:49.747Z,100875.06
2022-12-27T12:07:32.713Z,100879.31
2022-12-27T12:10:27.231Z,100899.91
2022-12-27T12:13:10.381Z,100902.78
2022-12-27T12:16:03.666Z,100917.31
2022-12-27T12:19:08.851Z,100921.59
2022-12-27T12:22:33.944Z,100945.25
2022-12-27T12:25:51.584Z,100935.97
2022-12-27T12:28:59.875Z,100951.63
2022-12-27T12:31:46.132Z,100959.38
2022-12-27T12:34:56.186Z,100965.41
2022-12-27T12:37:37.964Z,100970.59
2022-12-27T12:40:29.588Z,100978.44
2022-12-27T12:43:23.634Z,100976.66
2022-12-27T12:46:03.440Z,100992.66
2022-12-27T12:48:54.481Z,100988.00
2022-12-27T12:52:05.762Z,100994.19
2022-12-27T12:55:33.398Z,101010.06
2022-12-27T12:58:41.193Z,101009.50
2022-12-27T13:01:27.420Z,101011.56
2022-12-27T13:04:13.175Z,100998.59
2022-12-27T13:07:13.689Z,100997.75
2022-12-27T13:10:43.071Z,100982.44
2022-12-27T13:13:59.419Z,100986.56
2022-12-27T13:17:03.817Z,100981.56
2022-12-27T13:20:37.340Z,100980.63
2022-12-27T13:23:35.211Z,100963.50
2022-12-27T13:26:12.120Z,100956.38
2022-12-27T13:29:06.374Z,100904.13
2022-12-27T13:31:56.729Z,100909.59
2022-12-27T13:35:04.924Z,100908.53
2022-12-27T13:37:58.327Z,100858.81
2022-12-27T13:40:59.794Z,100829.84
2022-12-27T13:43:53.365Z,100789.66
2022-12-27T13:46:25.181Z,100771.84
2022-12-27T13:49:07.963Z,100805.63
2022-12-27T13:51:49.925Z,100810.47
2022-12-27T13:55:13.075Z,100775.81
2022-12-27T13:58:39.631Z,100782.16
2022-12-27T14:01:30.774Z,100761.19
2022-12-27T14:04:22.833Z,100707.03
2022-12-27T14:07:08.536Z,100725.75
2022-12-27T14:10:05.874Z,100681.38
2022-12-27T14:13:02.779Z,100685.94
2022-12-27T14:16:03.602Z,100690.28
2022-12-27T14:19:29.985Z,100714.44
2022-12-27T14:22:43.911Z,100724.41
2022-12-27T14:25:37.708Z,100700.19
2022-12-27T14:28:35.082Z,100704.88
2022-12-27T14:31:55.289Z,100677.69
2022-12-27T14:35:07.610Z,100685.72
2022-12-27T14:38:21.766Z,100695.00
2022-12-27T14:41:32.520Z,100710.47
2022-12-27T14:44:33.007Z,100696.28
2022-12-27T14:47:37.274Z,100698.16
2022-12-27T14:50:24.886Z,100712.78
2022-12-27T14:53:31.181Z,100733.78
2022-12-27T14:56:34.143Z,100753.72
2022-12-27T14:59:45.544Z,100748.09
2022-12-27T15:03:14.410Z,100747.66
2022-12-27T15:06:55.803Z,100747.00
2022-12-27T15:10:28.412Z,100769.88
2022-12-27T15:13:18.277Z,100790.06
2022-12-27T15:16:18.191Z,100787.09
2022-12-27T15:19:06.597Z,100809.19
2022-12-27T15:22:02.407Z,100817.56
2022-12-27T15:24:59.037Z,100827.13
2022-12-27T15:27:48.949Z,100830.72
2022-12-27T15:30:56.135Z,100838.66
2022-12-27T15:34:03.343Z,100836.00
2022-12-27T15:36:42.386Z,100839.47
2022-12-27T15:39:33.697Z,100847.34
2022-12-27T15:42:38.695Z,100855.91
2022-12-27T15:45:29.449Z,100860.25
2022-12-27T15:48:35.621Z,100856.31
2022-12-27T15:51:36.488Z,100865.88
2022-12-27T15:54:25.006Z,100863.31
2022-12-27T15:57:18.886Z,100852.38
2022-12-27T16:00:15.721Z,100852.78
2022-12-27T16:02:48.597Z,100867.69
2022-12-27T16:05:24.156Z,100863.00
2022-12-27T16:07:51.228Z,100856.63
2022-12-27T16:10:45.552Z,100849.31
2022-12-27T16:13:43.046Z,100841.75
2022-12-27T16:16:37.412Z,100846.03
2022-12-27T16:19:36.854Z,100855.03
2022-12-27T16:22:29.868Z,100853.91
2022-12-27T16:24:57.575Z,100851.41
2022-12-27T16:27:31.904Z,100855.50
2022-12-27T16:29:59.506Z,100853.13
2022-12-27T16:32:28.466Z,100846.00
2022-12-27T16:35:16.277Z,100848.03
2022-12-27T16:37:53.363Z,100846.88
2022-12-27T16:40:49.515Z,100832.44
2022-12-27T16:43:19.190Z,100855.69
2022-12-27T16:46:12.301Z,100857.22
2022-12-27T16:49:23.287Z,100867.09
2022-12-27T16:52:18.579Z,100868.34
2022-12-27T16:55:15.978Z,100853.97
2022-12-27T16:57:52.222Z,100866.94
2022-12-27T17:00:43.165Z,100875.88
2022-12-27T17:03:21.751Z,100871.88
2022-12-27T17:06:22.177Z,100876.50
2022-12-27T17:08:37.845Z,100882.56
2022-12-27T17:11:26.140Z,100882.16
2022-12-27T17:14:03.544Z,100884.72
2022-12-27T17:16:42.449Z,100879.03
2022-12-27T17:19:27.643Z,100888.25
2022-12-27T17:22:02.011Z,100890.78
2022-12-27T17:24:30.306Z,100908.41
2022-12-27T17:27:30.390Z,100906.06
2022-12-27T17:30:06.940Z,100908.41
2022-12-27T17:33:17.053Z,100919.69
2022-12-27T17:36:14.939Z,100923.25
2022-12-27T17:39:14.306Z,100917.84
2022-12-27T17:42:26.696Z,100914.53
2022-12-27T17:45:39.774Z,100915.16
2022-12-27T17:48:26.596Z,100908.75
2022-12-27T17:51:01.416Z,100907.16
2022-12-27T17:53:47.559Z,100895.50
2022-12-27T17:56:43.626Z,100903.47
2022-12-27T17:59:24.987Z,100899.06
2022-12-27T18:01:58.114Z,100891.63
2022-12-27T18:04:30.257Z,100906.25
2022-12-27T18:07:02.303Z,100907.97
2022-12-27T18:09:51.600Z,100910.44
2022-12-27T18:12:40.221Z,100911.34
2022-12-27T18:15:21.665Z,100905.53
2022-12-27T18:17:59.052Z,100900.03
2022-12-27T18:20:28.926Z,100897.00
2022-12-27T18:23:05.265Z,100904.00
2022-12-27T18:25:40.423Z,100914.78
2022-12-27T18:28:33.859Z,100913.56
2022-12-27T18:31:14.252Z,100916.53
2022-12-27T18:33:56.629Z,100902.81
2022-12-27T18:36:38.380Z,100895.66
2022-12-27T18:39:14.817Z,100896.69
2022-12-27T18:41:51.474Z,100907.00
2022-12-27T18:44:27.579Z,100902.53
2022-12-27T18:47:00.175Z,100897.38
2022-12-27T18:49:36.735Z,100897.44
2022-12-27T18:52:19.852Z,100896.41
2022-12-27T18:54:46.858Z,100886.31
2022-12-27T18:57:35.345Z,100891.38
2022-12-27T19:00:19.195Z,100894.91
2022-12-27T19:02:46.306Z,100888.47
2022-12-27T19:05:36.342Z,100890.34
2022-12-27T19:08:20.191Z,100897.78
2022-12-27T19:10:49.912Z,100895.25
2022-12-27T19:13:29.657Z,100890.22
2022-12-27T19:15:58.939Z,100882.91
2022-12-27T19:18:34.235Z,100888.53
2022-12-27T19:21:05.292Z,100894.13
2022-12-27T19:23:38.715Z,100889.69
2022-12-27T19:26:27.695Z,100886.03
2022-12-27T19:29:08.821Z,100888.72
2022-12-27T19:31:38.930Z,100873.75
2022-12-27T19:34:10.600Z,100875.94
2022-12-27T19:36:41.428Z,100859.66
2022-12-27T19:39:28.788Z,100858.78
2022-12-27T19:42:00.767Z,100866.44
2022-12-27T19:44:29.041Z,100873.53
2022-12-27T19:46:56.181Z,100868.16
2022-12-27T19:49:42.321Z,100869.28
2022-12-27T19:52:24.555Z,100862.34
2022-12-27T19:55:07.639Z,100848.34
2022-12-27T19:57:36.096Z,100848.44
2022-12-27T20:00:23.400Z,100847.13
2022-12-27T20:02:51.210Z,100847.38
2022-12-27T20:06:12.742Z,100834.34
2022-12-27T20:08:27.384Z,100854.84
2022-12-27T20:10:57.497Z,100854.69
2022-12-27T20:13:35.030Z,100849.16
2022-12-27T20:16:02.643Z,100852.81
2022-12-27T20:18:29.900Z,100867.31
2022-12-27T20:20:58.195Z,100846.94
2022-12-27T20:23:25.687Z,100852.47
2022-12-27T20:25:52.888Z,100853.47
2022-12-27T20:28:20.027Z,100836.34
2022-12-27T20:30:48.135Z,100828.84
2022-12-27T20:33:16.112Z,100828.78
2022-12-27T20:35:43.277Z,100821.38
2022-12-27T20:38:12.047Z,100832.53
2022-12-27T20:40:41.094Z,100827.25
2022-12-27T20:43:08.237Z,100838.09
2022-12-27T20:45:35.489Z,100848.63
2022-12-27T20:48:02.786Z,100849.34
2022-12-27T20:50:31.656Z,100843.00
2022-12-27T20:52:58.867Z,100842.53
2022-12-27T20:55:27.816Z,100845.41
2022-12-27T20:57:55.421Z,100857.13
2022-12-27T21:00:24.790Z,100876.66
2022-12-27T21:02:53.311Z,100880.56
2022-12-27T21:05:20.960Z,100878.38
2022-12-27T21:07:48.026Z,100858.47
2022-12-27T21:10:15.137Z,100872.16
2022-12-27T21:12:42.139Z,100871.75
2022-12-27T21:15:10.898Z,100872.25
2022-12-27T21:17:38.016Z,100857.69
2022-12-27T21:20:06.828Z,100852.53
2022-12-27T21:22:33.881Z,100847.28
2022-12-27T21:25:00.927Z,100839.53
2022-12-27T21:27:28.726Z,100839.22
2022-12-27T21:29:56.197Z,100834.16
2022-12-27T21:32:24.684Z,100825.13
2022-12-27T21:34:52.081Z,100824.03
2022-12-27T21:37:19.831Z,100831.34
2022-12-27T21:39:47.207Z,100822.16
2022-12-27T21:42:17.129Z,100817.03
2022-12-27T21:44:44.995Z,100817.09
2022-12-27T21:47:12.343Z,100813.72
2022-12-27T21:49:41.880Z,100813.34
2022-12-27T21:52:12.512Z,100805.47
2022-12-27T21:54:41.762Z,100802.13
2022-12-27T21:57:09.585Z,100794.75
2022-12-27T21:59:38.622Z,100784.09
2022-12-27T22:02:06.712Z,100789.50
2022-12-27T22:04:33.850Z,100784.00
2022-12-27T22:07:00.932Z,100781.88
2022-12-27T22:09:28.033Z,100772.63
2022-12-27T22:11:55.309Z,100784.69
2022-12-27T22:14:25.586Z,100779.31
2022-12-27T22:16:53.355Z,100769.47
2022-12-27T22:19:20.496Z,100781.34
2022-12-27T22:21:47.800Z,100767.94
2022-12-27T22:24:19.458Z,100767.66
2022-12-27T22:26:48.920Z,100765.16
2022-12-27T22:29:17.866Z,100775.81
2022-12-27T22:31:45.311Z,100765.06
2022-12-27T22:34:12.672Z,100775.59
2022-12-27T22:36:40.113Z,100762.88
2022-12-27T22:39:07.781Z,100766.47
2022-12-27T22:41:38.005Z,100767.66
2022-12-27T22:44:10.157Z,100759.13
2022-12-27T22:49:24.403Z,100750.03
2022-12-27T22:51:51.451Z,100744.03
2022-12-27T22:54:18.401Z,100737.03
2022-12-27T22:56:45.489Z,100727.84
2022-12-27T22:59:16.230Z,100724.25
2022-12-27T23:01:45.833Z,100719.38
2022-12-27T23:04:14.318Z,100722.06
2022-12-27T23:06:42.741Z,100723.78
2022-12-27T23:09:12.504Z,100720.38
2022-12-27T23:11:41.602Z,100721.16
2022-12-27T23:14:16.445Z,100725.47
2022-12-27T23:16:47.158Z,100711.25
2022-12-27T23:19:21.344Z,100701.00
2022-12-27T23:21:49.156Z,100691.16
2022-12-27T23:24:16.678Z,100692.31
2022-12-27T23:26:44.163Z,100688.41
2022-12-27T23:29:15.093Z,100688.50
2022-12-27T23:31:54.350Z,100680.75
2022-12-27T23:34:38.383Z,100684.41
2022-12-27T23:37:05.333Z,100684.91
2022-12-27T23:39:32.293Z,100685.25
2022-12-27T23:41:59.278Z,100677.25
2022-12-27T23:44:34.060Z,100681.91
2022-12-27T23:47:04.416Z,100675.97
2022-12-27T23:49:31.567Z,100679.63
2022-12-27T23:51:58.538Z,100677.91
2022-12-27T23:54:25.523Z,100676.28
2022-12-27T23:56:52.541Z,100685.97
2022-12-27T23:59:19.672Z,100683.38
